TSC159 SKRG-SKCG
Flight info
| Callsign | TSC159 |
|---|---|
| Flight time | 0h 45m |
| Altitude | 24000 |
| Route | LATIS1B LATIS W65 BUTAL/N0405F230 W6 CTG |
| Aircraft | A321/M-SDE3FGHIRWY/LB1 |
Departure
| Time | 2026-05-07 14:27 |
|---|---|
| Airport | Jose Maria Córdova International Airport (SKRG) |
Arrival
| Time | 2026-05-07 15:13 |
|---|---|
| Airport | Rafael Nuñez International Airport (SKCG) |
| Time | Latitude | Longitude | Altitude | Speed | Heading |
|---|---|---|---|---|---|
| 2026-05-07 13:57 | 6.17289 | -75.42773 | 7018 ft | 0 kts | 211° |
| 2026-05-07 14:16 | 6.17309 | -75.42762 | 7019 ft | 4 kts | 198° |
| 2026-05-07 14:16 | 6.17335 | -75.42758 | 7020 ft | 4 kts | 169° |
| 2026-05-07 14:16 | 6.17358 | -75.42769 | 7020 ft | 4 kts | 135° |
| 2026-05-07 14:17 | 6.17373 | -75.42790 | 7021 ft | 4 kts | 110° |
| 2026-05-07 14:17 | 6.17376 | -75.42798 | 7018 ft | 0 kts | 107° |
| 2026-05-07 14:20 | 6.17375 | -75.42794 | 7018 ft | 3 kts | 107° |
| 2026-05-07 14:20 | 6.17354 | -75.42741 | 7019 ft | 13 kts | 116° |
| 2026-05-07 14:20 | 6.17293 | -75.42641 | 7019 ft | 17 kts | 132° |
| 2026-05-07 14:20 | 6.17184 | -75.42618 | 7020 ft | 16 kts | 180° |
| 2026-05-07 14:21 | 6.17077 | -75.42612 | 7016 ft | 17 kts | 165° |
| 2026-05-07 14:21 | 6.16965 | -75.42547 | 7014 ft | 19 kts | 149° |
| 2026-05-07 14:21 | 6.16849 | -75.42487 | 7004 ft | 18 kts | 167° |
| 2026-05-07 14:21 | 6.16714 | -75.42482 | 6995 ft | 21 kts | 178° |
| 2026-05-07 14:22 | 6.16510 | -75.42479 | 6989 ft | 23 kts | 179° |
| 2026-05-07 14:22 | 6.16400 | -75.42478 | 6984 ft | 25 kts | 180° |
| 2026-05-07 14:22 | 6.16224 | -75.42478 | 6979 ft | 25 kts | 180° |
| 2026-05-07 14:22 | 6.16048 | -75.42477 | 6976 ft | 25 kts | 179° |
| 2026-05-07 14:23 | 6.15879 | -75.42476 | 6975 ft | 24 kts | 179° |
| 2026-05-07 14:23 | 6.15717 | -75.42475 | 6975 ft | 22 kts | 180° |
| 2026-05-07 14:23 | 6.15568 | -75.42474 | 6976 ft | 21 kts | 179° |
| 2026-05-07 14:23 | 6.15415 | -75.42473 | 6977 ft | 22 kts | 179° |
| 2026-05-07 14:24 | 6.15252 | -75.42472 | 6977 ft | 25 kts | 180° |
| 2026-05-07 14:24 | 6.15072 | -75.42471 | 6978 ft | 27 kts | 180° |
| 2026-05-07 14:24 | 6.14928 | -75.42472 | 6977 ft | 16 kts | 184° |
| 2026-05-07 14:24 | 6.14821 | -75.42457 | 6973 ft | 16 kts | 119° |
| 2026-05-07 14:25 | 6.14815 | -75.42423 | 6972 ft | 0 kts | 84° |
| 2026-05-07 14:25 | 6.14816 | -75.42421 | 6972 ft | 1 kts | 84° |
| 2026-05-07 14:25 | 6.14821 | -75.42399 | 6973 ft | 6 kts | 72° |
| 2026-05-07 14:25 | 6.14865 | -75.42358 | 6975 ft | 12 kts | 30° |
| 2026-05-07 14:26 | 6.14954 | -75.42308 | 6975 ft | 18 kts | 23° |
| 2026-05-07 14:26 | 6.15156 | -75.42300 | 6980 ft | 55 kts | 0° |
| 2026-05-07 14:26 | 6.15773 | -75.42305 | 6979 ft | 120 kts | 359° |
| 2026-05-07 14:26 | 6.16785 | -75.42311 | 6996 ft | 168 kts | 359° |
| 2026-05-07 14:27 | 6.18046 | -75.42317 | 7404 ft | 181 kts | 360° |
| 2026-05-07 14:27 | 6.19295 | -75.42318 | 8180 ft | 179 kts | 3° |
| 2026-05-07 14:27 | 6.20538 | -75.42317 | 8595 ft | 179 kts | 7° |
| 2026-05-07 14:27 | 6.21671 | -75.41907 | 8952 ft | 172 kts | 48° |
| 2026-05-07 14:28 | 6.22252 | -75.40923 | 9289 ft | 163 kts | 85° |
| 2026-05-07 14:28 | 6.22208 | -75.39806 | 9657 ft | 161 kts | 96° |
| 2026-05-07 14:28 | 6.22351 | -75.38698 | 10113 ft | 166 kts | 73° |
| 2026-05-07 14:28 | 6.22847 | -75.37603 | 10319 ft | 181 kts | 69° |
| 2026-05-07 14:29 | 6.23420 | -75.36404 | 10444 ft | 200 kts | 68° |
| 2026-05-07 14:29 | 6.24056 | -75.35089 | 10561 ft | 218 kts | 67° |
| 2026-05-07 14:29 | 6.24749 | -75.33667 | 10678 ft | 236 kts | 67° |
| 2026-05-07 14:29 | 6.25512 | -75.32097 | 10752 ft | 259 kts | 66° |
| 2026-05-07 14:30 | 6.26326 | -75.30424 | 10893 ft | 282 kts | 66° |
| 2026-05-07 14:30 | 6.27224 | -75.28584 | 11038 ft | 305 kts | 65° |
| 2026-05-07 14:30 | 6.28193 | -75.26602 | 11139 ft | 327 kts | 65° |
| 2026-05-07 14:30 | 6.29564 | -75.24707 | 11348 ft | 347 kts | 41° |
| 2026-05-07 14:31 | 6.31730 | -75.23593 | 11822 ft | 358 kts | 16° |
| 2026-05-07 14:31 | 6.34224 | -75.23328 | 12343 ft | 364 kts | 1° |
| 2026-05-07 14:31 | 6.36764 | -75.23516 | 12980 ft | 368 kts | 356° |
| 2026-05-07 14:31 | 6.39313 | -75.23850 | 13619 ft | 371 kts | 355° |
| 2026-05-07 14:32 | 6.41881 | -75.24151 | 14208 ft | 372 kts | 357° |
| 2026-05-07 14:32 | 6.44465 | -75.24395 | 14742 ft | 375 kts | 356° |
| 2026-05-07 14:32 | 6.47063 | -75.24741 | 15270 ft | 378 kts | 353° |
| 2026-05-07 14:32 | 6.49664 | -75.25229 | 15736 ft | 382 kts | 350° |
| 2026-05-07 14:33 | 6.52262 | -75.25843 | 16253 ft | 385 kts | 348° |
| 2026-05-07 14:33 | 6.54901 | -75.26548 | 16788 ft | 389 kts | 347° |
| 2026-05-07 14:33 | 6.57486 | -75.27270 | 17319 ft | 392 kts | 346° |
| 2026-05-07 14:33 | 6.60124 | -75.28012 | 17838 ft | 395 kts | 346° |
| 2026-05-07 14:34 | 6.62783 | -75.28745 | 18328 ft | 398 kts | 347° |
| 2026-05-07 14:34 | 6.65468 | -75.29470 | 18770 ft | 401 kts | 347° |
| 2026-05-07 14:34 | 6.68172 | -75.30188 | 19225 ft | 403 kts | 347° |
| 2026-05-07 14:34 | 6.70892 | -75.30900 | 19671 ft | 405 kts | 348° |
| 2026-05-07 14:35 | 6.73624 | -75.31612 | 20103 ft | 407 kts | 347° |
| 2026-05-07 14:35 | 6.76369 | -75.32328 | 20526 ft | 409 kts | 347° |
| 2026-05-07 14:35 | 6.79128 | -75.33049 | 20917 ft | 411 kts | 348° |
| 2026-05-07 14:35 | 6.81900 | -75.33773 | 21330 ft | 412 kts | 347° |
| 2026-05-07 14:36 | 6.84684 | -75.34500 | 21764 ft | 414 kts | 347° |
| 2026-05-07 14:36 | 6.87482 | -75.35235 | 22162 ft | 417 kts | 347° |
| 2026-05-07 14:36 | 6.90293 | -75.35976 | 22577 ft | 419 kts | 347° |
| 2026-05-07 14:36 | 6.93119 | -75.36721 | 22927 ft | 421 kts | 347° |
| 2026-05-07 14:37 | 6.95957 | -75.37470 | 23305 ft | 423 kts | 347° |
| 2026-05-07 14:37 | 7.01683 | -75.38942 | 23961 ft | 426 kts | 351° |
| 2026-05-07 14:37 | 7.04615 | -75.39302 | 24047 ft | 424 kts | 357° |
| 2026-05-07 14:38 | 7.07559 | -75.39533 | 24032 ft | 424 kts | 357° |
| 2026-05-07 14:38 | 7.10501 | -75.39759 | 24035 ft | 424 kts | 358° |
| 2026-05-07 14:38 | 7.13440 | -75.39987 | 24035 ft | 424 kts | 357° |
| 2026-05-07 14:38 | 7.16381 | -75.40218 | 24034 ft | 424 kts | 357° |
| 2026-05-07 14:39 | 7.19325 | -75.40450 | 24035 ft | 424 kts | 357° |
| 2026-05-07 14:39 | 7.22263 | -75.40682 | 24035 ft | 424 kts | 357° |
| 2026-05-07 14:39 | 7.25204 | -75.40915 | 24035 ft | 424 kts | 357° |
| 2026-05-07 14:39 | 7.28140 | -75.41149 | 24034 ft | 423 kts | 357° |
| 2026-05-07 14:40 | 7.31077 | -75.41387 | 24035 ft | 424 kts | 357° |
| 2026-05-07 14:40 | 7.34016 | -75.41625 | 24036 ft | 424 kts | 357° |
| 2026-05-07 14:40 | 7.36953 | -75.41862 | 24005 ft | 423 kts | 357° |
| 2026-05-07 14:40 | 7.39888 | -75.42097 | 24008 ft | 423 kts | 357° |
| 2026-05-07 14:41 | 7.42817 | -75.42330 | 24005 ft | 423 kts | 357° |
| 2026-05-07 14:41 | 7.45749 | -75.42561 | 24005 ft | 423 kts | 357° |
| 2026-05-07 14:41 | 7.48641 | -75.42789 | 24005 ft | 422 kts | 358° |
| 2026-05-07 14:41 | 7.51569 | -75.43019 | 23979 ft | 422 kts | 358° |
| 2026-05-07 14:42 | 7.54497 | -75.43249 | 23980 ft | 422 kts | 357° |
| 2026-05-07 14:42 | 7.57423 | -75.43485 | 23981 ft | 422 kts | 357° |
| 2026-05-07 14:42 | 7.60348 | -75.43722 | 23980 ft | 422 kts | 357° |
| 2026-05-07 14:42 | 7.63275 | -75.43959 | 23981 ft | 422 kts | 357° |
| 2026-05-07 14:43 | 7.66202 | -75.44194 | 23963 ft | 422 kts | 357° |
| 2026-05-07 14:43 | 7.69127 | -75.44428 | 23964 ft | 422 kts | 357° |
| 2026-05-07 14:43 | 7.72054 | -75.44662 | 23964 ft | 422 kts | 357° |
| 2026-05-07 14:43 | 7.74975 | -75.44896 | 23964 ft | 421 kts | 357° |
| 2026-05-07 14:44 | 7.77894 | -75.45130 | 23962 ft | 420 kts | 357° |
| 2026-05-07 14:44 | 7.80806 | -75.45364 | 23950 ft | 420 kts | 357° |
| 2026-05-07 14:44 | 7.83722 | -75.45599 | 23950 ft | 420 kts | 357° |
| 2026-05-07 14:44 | 7.86640 | -75.45812 | 23950 ft | 420 kts | 359° |
| 2026-05-07 14:45 | 7.89559 | -75.45933 | 23950 ft | 420 kts | 0° |
| 2026-05-07 14:45 | 7.92475 | -75.45985 | 23950 ft | 419 kts | 1° |
| 2026-05-07 14:45 | 7.95392 | -75.46006 | 23945 ft | 419 kts | 1° |
| 2026-05-07 14:45 | 7.98310 | -75.46023 | 23945 ft | 419 kts | 1° |
| 2026-05-07 14:46 | 8.01228 | -75.46052 | 23945 ft | 419 kts | 1° |
| 2026-05-07 14:46 | 8.04145 | -75.46094 | 23945 ft | 419 kts | 1° |
| 2026-05-07 14:46 | 8.07061 | -75.46149 | 23945 ft | 419 kts | 1° |
| 2026-05-07 14:46 | 8.09977 | -75.46213 | 23945 ft | 419 kts | 1° |
| 2026-05-07 14:47 | 8.12889 | -75.46280 | 23944 ft | 419 kts | 0° |
| 2026-05-07 14:47 | 8.15802 | -75.46347 | 23942 ft | 418 kts | 1° |
| 2026-05-07 14:47 | 8.18712 | -75.46413 | 23942 ft | 418 kts | 1° |
| 2026-05-07 14:47 | 8.21623 | -75.46476 | 23942 ft | 418 kts | 1° |
| 2026-05-07 14:48 | 8.24532 | -75.46537 | 23940 ft | 418 kts | 1° |
| 2026-05-07 14:48 | 8.27442 | -75.46597 | 23942 ft | 418 kts | 1° |
| 2026-05-07 14:48 | 8.30351 | -75.46658 | 23942 ft | 418 kts | 1° |
| 2026-05-07 14:48 | 8.33262 | -75.46719 | 23942 ft | 418 kts | 1° |
| 2026-05-07 14:49 | 8.36172 | -75.46780 | 23942 ft | 418 kts | 1° |
| 2026-05-07 14:49 | 8.39082 | -75.46840 | 23939 ft | 418 kts | 1° |
| 2026-05-07 14:49 | 8.41989 | -75.46900 | 23939 ft | 418 kts | 1° |
| 2026-05-07 14:49 | 8.44898 | -75.46962 | 23939 ft | 418 kts | 1° |
| 2026-05-07 14:50 | 8.47802 | -75.47022 | 23940 ft | 417 kts | 1° |
| 2026-05-07 14:50 | 8.50699 | -75.47080 | 23942 ft | 416 kts | 1° |
| 2026-05-07 14:50 | 8.53597 | -75.47136 | 23942 ft | 416 kts | 1° |
| 2026-05-07 14:50 | 8.56494 | -75.47196 | 23942 ft | 416 kts | 1° |
| 2026-05-07 14:51 | 8.59388 | -75.47258 | 23939 ft | 416 kts | 1° |
| 2026-05-07 14:51 | 8.62285 | -75.47320 | 23939 ft | 416 kts | 1° |
| 2026-05-07 14:51 | 8.65182 | -75.47382 | 23939 ft | 416 kts | 1° |
| 2026-05-07 14:51 | 8.68076 | -75.47445 | 23939 ft | 416 kts | 1° |
| 2026-05-07 14:52 | 8.70970 | -75.47508 | 23944 ft | 416 kts | 1° |
| 2026-05-07 14:52 | 8.73867 | -75.47567 | 23942 ft | 416 kts | 1° |
| 2026-05-07 14:52 | 8.76764 | -75.47625 | 23941 ft | 416 kts | 1° |
| 2026-05-07 14:52 | 8.79657 | -75.47684 | 23941 ft | 416 kts | 1° |
| 2026-05-07 14:53 | 8.82554 | -75.47749 | 23936 ft | 416 kts | 1° |
| 2026-05-07 14:53 | 8.85445 | -75.47820 | 23938 ft | 415 kts | 1° |
| 2026-05-07 14:53 | 8.88333 | -75.47883 | 23938 ft | 415 kts | 1° |
| 2026-05-07 14:53 | 8.91219 | -75.47941 | 23939 ft | 415 kts | 1° |
| 2026-05-07 14:54 | 8.94105 | -75.47997 | 23942 ft | 415 kts | 1° |
| 2026-05-07 14:54 | 8.96991 | -75.48055 | 23939 ft | 415 kts | 1° |
| 2026-05-07 14:54 | 8.99877 | -75.48114 | 23939 ft | 415 kts | 1° |
| 2026-05-07 14:54 | 9.02763 | -75.48173 | 23939 ft | 415 kts | 1° |
| 2026-05-07 14:55 | 9.05633 | -75.48231 | 23804 ft | 407 kts | 1° |
| 2026-05-07 14:55 | 9.08437 | -75.48290 | 23585 ft | 401 kts | 1° |
| 2026-05-07 14:55 | 9.11209 | -75.48348 | 23340 ft | 395 kts | 1° |
| 2026-05-07 14:55 | 9.13932 | -75.48404 | 22920 ft | 388 kts | 1° |
| 2026-05-07 14:56 | 9.16614 | -75.48460 | 22446 ft | 383 kts | 1° |
| 2026-05-07 14:56 | 9.19256 | -75.48516 | 22015 ft | 377 kts | 1° |
| 2026-05-07 14:56 | 9.21861 | -75.48568 | 21585 ft | 372 kts | 1° |
| 2026-05-07 14:56 | 9.24436 | -75.48620 | 21147 ft | 368 kts | 1° |
| 2026-05-07 14:57 | 9.26982 | -75.48670 | 20735 ft | 364 kts | 1° |
| 2026-05-07 14:57 | 9.29506 | -75.48720 | 20313 ft | 361 kts | 1° |
| 2026-05-07 14:57 | 9.32012 | -75.48770 | 19882 ft | 359 kts | 1° |
| 2026-05-07 14:57 | 9.34504 | -75.48822 | 19410 ft | 358 kts | 1° |
| 2026-05-07 14:58 | 9.36975 | -75.48877 | 19089 ft | 354 kts | 1° |
| 2026-05-07 14:58 | 9.39438 | -75.48931 | 18668 ft | 353 kts | 1° |
| 2026-05-07 14:58 | 9.41893 | -75.48983 | 18220 ft | 353 kts | 1° |
| 2026-05-07 14:58 | 9.44343 | -75.49030 | 17731 ft | 351 kts | 1° |
| 2026-05-07 14:59 | 9.46779 | -75.49078 | 17289 ft | 349 kts | 1° |
| 2026-05-07 14:59 | 9.49204 | -75.49128 | 16842 ft | 348 kts | 2° |
| 2026-05-07 14:59 | 9.51615 | -75.49194 | 16402 ft | 346 kts | 1° |
| 2026-05-07 14:59 | 9.54017 | -75.49282 | 15969 ft | 345 kts | 1° |
| 2026-05-07 15:00 | 9.56379 | -75.49377 | 15532 ft | 344 kts | 1° |
| 2026-05-07 15:00 | 9.58796 | -75.49474 | 15094 ft | 343 kts | 1° |
| 2026-05-07 15:00 | 9.61176 | -75.49568 | 14661 ft | 342 kts | 1° |
| 2026-05-07 15:00 | 9.63552 | -75.49663 | 14218 ft | 342 kts | 1° |
| 2026-05-07 15:01 | 9.65903 | -75.49755 | 13795 ft | 346 kts | 2° |
| 2026-05-07 15:01 | 9.68376 | -75.49849 | 13307 ft | 353 kts | 2° |
| 2026-05-07 15:01 | 9.70799 | -75.49941 | 12808 ft | 353 kts | 1° |
| 2026-05-07 15:01 | 9.73282 | -75.50035 | 12313 ft | 352 kts | 1° |
| 2026-05-07 15:02 | 9.75722 | -75.50129 | 11835 ft | 350 kts | 1° |
| 2026-05-07 15:02 | 9.78117 | -75.50221 | 11366 ft | 349 kts | 1° |
| 2026-05-07 15:02 | 9.80539 | -75.50313 | 10886 ft | 348 kts | 1° |
| 2026-05-07 15:02 | 9.82952 | -75.50404 | 10473 ft | 344 kts | 1° |
| 2026-05-07 15:03 | 9.85268 | -75.50496 | 10347 ft | 322 kts | 1° |
| 2026-05-07 15:03 | 9.87450 | -75.50582 | 10098 ft | 308 kts | 1° |
| 2026-05-07 15:03 | 9.89566 | -75.50659 | 9825 ft | 301 kts | 0° |
| 2026-05-07 15:03 | 9.91654 | -75.50731 | 9705 ft | 300 kts | 0° |
| 2026-05-07 15:04 | 9.93743 | -75.50803 | 9377 ft | 302 kts | 0° |
| 2026-05-07 15:04 | 9.95165 | -75.50853 | 9051 ft | 303 kts | 0° |
| 2026-05-07 15:04 | 9.97252 | -75.50928 | 8696 ft | 299 kts | 0° |
| 2026-05-07 15:04 | 9.99319 | -75.50983 | 8255 ft | 299 kts | 1° |
| 2026-05-07 15:05 | 10.01377 | -75.51025 | 7752 ft | 294 kts | 1° |
| 2026-05-07 15:05 | 10.03414 | -75.51059 | 7199 ft | 292 kts | 2° |
| 2026-05-07 15:05 | 10.05425 | -75.51087 | 6565 ft | 287 kts | 2° |
| 2026-05-07 15:05 | 10.07399 | -75.51119 | 5959 ft | 279 kts | 1° |
| 2026-05-07 15:06 | 10.09301 | -75.51157 | 5473 ft | 267 kts | 1° |
| 2026-05-07 15:06 | 10.11114 | -75.51195 | 5026 ft | 255 kts | 1° |
| 2026-05-07 15:06 | 10.12857 | -75.51231 | 4614 ft | 246 kts | 1° |
| 2026-05-07 15:06 | 10.14548 | -75.51268 | 4202 ft | 241 kts | 1° |
| 2026-05-07 15:07 | 10.16216 | -75.51305 | 3810 ft | 236 kts | 0° |
| 2026-05-07 15:07 | 10.17796 | -75.51343 | 3666 ft | 219 kts | 0° |
| 2026-05-07 15:07 | 10.19293 | -75.51381 | 3614 ft | 213 kts | 1° |
| 2026-05-07 15:07 | 10.20774 | -75.51421 | 3571 ft | 212 kts | 1° |
| 2026-05-07 15:08 | 10.22252 | -75.51454 | 3481 ft | 212 kts | 1° |
| 2026-05-07 15:08 | 10.23727 | -75.51476 | 3388 ft | 212 kts | 1° |
| 2026-05-07 15:08 | 10.25178 | -75.51493 | 3328 ft | 202 kts | 1° |
| 2026-05-07 15:08 | 10.26525 | -75.51513 | 3243 ft | 186 kts | 1° |
| 2026-05-07 15:09 | 10.27809 | -75.51535 | 2992 ft | 184 kts | 1° |
| 2026-05-07 15:09 | 10.29093 | -75.51557 | 2762 ft | 185 kts | 0° |
| 2026-05-07 15:09 | 10.30370 | -75.51593 | 2492 ft | 183 kts | 359° |
| 2026-05-07 15:09 | 10.31626 | -75.51630 | 2254 ft | 178 kts | 359° |
| 2026-05-07 15:10 | 10.32861 | -75.51661 | 1980 ft | 176 kts | 359° |
| 2026-05-07 15:10 | 10.34065 | -75.51672 | 1743 ft | 169 kts | 1° |
| 2026-05-07 15:10 | 10.35187 | -75.51649 | 1542 ft | 155 kts | 2° |
| 2026-05-07 15:10 | 10.36233 | -75.51608 | 1282 ft | 147 kts | 5° |
| 2026-05-07 15:11 | 10.37238 | -75.51567 | 1126 ft | 143 kts | 3° |
| 2026-05-07 15:11 | 10.38229 | -75.51533 | 947 ft | 142 kts | 4° |
| 2026-05-07 15:11 | 10.39216 | -75.51494 | 785 ft | 142 kts | 2° |
| 2026-05-07 15:11 | 10.40209 | -75.51456 | 608 ft | 144 kts | 2° |
| 2026-05-07 15:12 | 10.41234 | -75.51410 | 406 ft | 149 kts | 1° |
| 2026-05-07 15:12 | 10.42267 | -75.51372 | 229 ft | 148 kts | 1° |
| 2026-05-07 15:12 | 10.43288 | -75.51325 | 60 ft | 144 kts | 0° |
| 2026-05-07 15:12 | 10.44197 | -75.51291 | 51 ft | 105 kts | 2° |
| 2026-05-07 15:13 | 10.44544 | -75.51277 | 51 ft | 11 kts | 2° |
| 2026-05-07 15:13 | 10.44616 | -75.51279 | 51 ft | 10 kts | 343° |
| 2026-05-07 15:13 | 10.44648 | -75.51331 | 49 ft | 9 kts | 278° |
| 2026-05-07 15:13 | 10.44637 | -75.51389 | 51 ft | 8 kts | 256° |
| 2026-05-07 15:14 | 10.44636 | -75.51417 | 51 ft | 0 kts | 271° |
| 2026-05-07 15:15 | 10.44636 | -75.51429 | 51 ft | 4 kts | 271° |
| 2026-05-07 15:15 | 10.44643 | -75.51455 | 51 ft | 6 kts | 296° |
| 2026-05-07 15:15 | 10.44676 | -75.51487 | 51 ft | 4 kts | 320° |
| 2026-05-07 15:15 | 10.44686 | -75.51508 | 51 ft | 3 kts | 286° |
| 2026-05-07 15:16 | 10.44688 | -75.51532 | 51 ft | 3 kts | 270° |
| 2026-05-07 15:16 | 10.44688 | -75.51547 | 51 ft | 0 kts | 271° |